This is the latest recevied weather packets stored in our database for station/object KQ4JKJ. If no packets are shown the sender has not sent any weather packets the latest 10 day(s).
| Time | Temp. | Humidity | Pressure | Rain* | Wind** | Luminosity | Snow |
|---|---|---|---|---|---|---|---|
| 1777492466 | 29.44° C | 60% | 1007.7 hPa | 0 mm | - | 560 W/m² | - |
| 1777492164 | 29.44° C | 60% | 1007.8 hPa | 0 mm | - | 600 W/m² | - |
| 1777491861 | 29.44° C | 62% | 1007.8 hPa | 0 mm | - | 695 W/m² | - |
| 1777491557 | 29.44° C | 59% | 1007.9 hPa | 0 mm | - | 395 W/m² | - |
| 1777491255 | 30° C | 59% | 1008.3 hPa | 0 mm | - | 388 W/m² | - |
| 1777490951 | 29.44° C | 59% | 1008.3 hPa | 0 mm | - | 457 W/m² | - |
| 1777490646 | 29.44° C | 58% | 1008.6 hPa | 0 mm | - | 696 W/m² | - |
| 1777490342 | 29.44° C | 61% | 1008.5 hPa | 0 mm | - | 465 W/m² | - |
| 1777490041 | 29.44° C | 61% | 1008.5 hPa | 0 mm | - | 623 W/m² | - |
| 1777489738 | 28.89° C | 62% | 1008.5 hPa | 0 mm | - | 662 W/m² | - |
| 1777489435 | 28.89° C | 63% | 1008.7 hPa | 0 mm | - | 529 W/m² | - |
| 1777489132 | 29.44° C | 62% | 1008.7 hPa | 0 mm | - | 411 W/m² | - |
| 1777488829 | 30° C | 60% | 1009 hPa | 0 mm | - | 440 W/m² | - |
| 1777488526 | 29.44° C | 61% | 1009.2 hPa | 0 mm | - | 556 W/m² | - |
| 1777488223 | 29.44° C | 62% | 1009 hPa | 0 mm | - | 655 W/m² | - |
| 1777487921 | 30° C | 60% | 1009.1 hPa | 0 mm | - | 566 W/m² | - |
| 1777487619 | 30° C | 61% | 1009 hPa | 0 mm | - | 434 W/m² | - |
| 1777487316 | 29.44° C | 62% | 1009.3 hPa | 0 mm | - | 680 W/m² | - |
| 1777487013 | 29.44° C | 63% | 1009.2 hPa | 0 mm | - | 728 W/m² | - |
| 1777486704 | 30° C | 61% | 1009.3 hPa | 0 mm | - | 695 W/m² | - |
| 1777486402 | 30.56° C | 60% | 1009.4 hPa | 0 mm | - | 388 W/m² | - |
| 1777486099 | 30.56° C | 60% | 1009.5 hPa | 0 mm | - | 653 W/m² | - |
| 1777485796 | 30.56° C | 61% | 1009.5 hPa | 0 mm | - | 746 W/m² | - |
| 1777485491 | 30.56° C | 59% | 1009.5 hPa | 0 mm | - | 804 W/m² | - |
| 1777485188 | 29.44° C | 64% | 1009.7 hPa | 0 mm | - | 429 W/m² | - |
* Rain latest hour (hover to see other rain measurements)
** Current wind speed in m/s (hover to see current wind gust speed)